Time;durP1;ratioP1;P1;durP2;ratioP2;P2;SDS_P1;SDS_P2;PMS_P1;PMS_P2;Temp;Humidity;BMP_temperature;BMP_pressure;BME280_temperature;BME280_humidity;BME280_pressure;Samples;Min_cycle;Max_cycle;Signal;HPM_P1;HPM_P2
2023/03/09 00:00:21;;;;;;;1999.90;999.90;;;;;;;9.15;100.00;92249.06;5083842;28;20169;-71
2023/03/09 00:02:47;;;;;;;1999.90;999.90;;;;;;;9.19;100.00;92269.44;5083793;28;20180;-70
2023/03/09 00:05:15;;;;;;;1999.90;999.90;;;;;;;9.21;100.00;92291.47;5083693;28;20173;-72
2023/03/09 00:07:41;;;;;;;1999.90;999.90;;;;;;;9.24;100.00;92308.84;5083453;28;20385;-71
2023/03/09 00:10:07;;;;;;;1999.90;999.90;;;;;;;9.27;100.00;92321.50;5084219;28;20232;-71
2023/03/09 00:12:33;;;;;;;1999.90;999.90;;;;;;;9.29;100.00;92330.69;5083895;28;20338;-75
2023/03/09 00:14:58;;;;;;;1999.90;999.90;;;;;;;9.36;100.00;92356.84;5084354;28;20173;-68
2023/03/09 00:17:24;;;;;;;1999.90;999.90;;;;;;;9.36;100.00;92395.69;5083647;28;20369;-69
2023/03/09 00:19:49;;;;;;;1999.90;999.90;;;;;;;9.38;100.00;92387.03;5083694;28;20276;-68
2023/03/09 00:22:14;;;;;;;1999.90;999.90;;;;;;;9.42;100.00;92426.50;5084131;28;20211;-71
2023/03/09 00:24:45;;;;;;;1999.90;999.90;;;;;;;9.41;100.00;92449.50;5083614;28;20178;-71
2023/03/09 00:27:11;;;;;;;1999.90;999.90;;;;;;;9.48;100.00;92456.56;5083757;28;20212;-71
2023/03/09 00:29:37;;;;;;;1999.90;999.90;;;;;;;9.46;100.00;92483.50;5083349;28;20499;-72
2023/03/09 00:32:02;;;;;;;1999.90;999.90;;;;;;;9.49;100.00;92505.13;5084026;28;20166;-71
2023/03/09 00:34:28;;;;;;;1999.90;999.90;;;;;;;9.60;100.00;92529.84;5084194;28;20161;-71
2023/03/09 00:36:53;;;;;;;1999.90;999.90;;;;;;;9.67;100.00;92545.84;5083530;28;20172;-71
2023/03/09 00:39:19;;;;;;;1999.90;999.90;;;;;;;9.67;100.00;92573.09;5083437;28;20169;-70
2023/03/09 00:41:44;;;;;;;1999.90;999.90;;;;;;;9.73;100.00;92581.38;5084177;28;20248;-72
2023/03/09 00:44:11;;;;;;;1999.90;999.90;;;;;;;9.83;100.00;92621.69;5083501;28;20206;-72
2023/03/09 00:46:37;;;;;;;1999.90;999.90;;;;;;;9.85;100.00;92659.38;5083298;28;20347;-68
2023/03/09 00:49:05;;;;;;;1999.90;999.90;;;;;;;9.95;100.00;92702.47;5083367;28;20193;-68
2023/03/09 00:51:36;;;;;;;1999.90;999.90;;;;;;;9.97;100.00;92770.91;5083885;28;20180;-68
2023/03/09 00:54:02;;;;;;;1999.90;999.90;;;;;;;10.00;100.00;92802.72;5083911;28;20203;-71
2023/03/09 00:56:29;;;;;;;1999.90;999.90;;;;;;;10.06;100.00;92817.22;5086088;28;20197;-68
2023/03/09 00:58:57;;;;;;;1999.90;999.90;;;;;;;10.10;100.00;92839.63;5086991;28;20201;-69
2023/03/09 01:01:23;;;;;;;1999.90;999.90;;;;;;;10.22;100.00;92839.88;5086979;28;20402;-67
2023/03/09 01:03:48;;;;;;;1999.90;999.90;;;;;;;10.25;100.00;92877.88;5086950;28;20179;-67
2023/03/09 01:06:14;;;;;;;1999.90;999.90;;;;;;;10.38;100.00;92902.22;5086873;28;20224;-67
2023/03/09 01:08:41;;;;;;;1999.90;999.90;;;;;;;10.45;100.00;92934.63;5086754;28;20277;-68
2023/03/09 01:11:08;;;;;;;1999.90;999.90;;;;;;;10.54;100.00;92953.66;5086777;28;20170;-71
2023/03/09 01:13:35;;;;;;;1999.90;999.90;;;;;;;10.61;100.00;92972.44;5087022;28;20196;-68
2023/03/09 01:16:00;;;;;;;1999.90;999.90;;;;;;;10.61;100.00;92991.53;5086868;28;20177;-69
2023/03/09 01:18:25;;;;;;;1999.90;999.90;;;;;;;10.70;100.00;93005.16;5086692;28;20198;-68
2023/03/09 01:20:51;;;;;;;1999.90;999.90;;;;;;;10.60;100.00;93006.41;5087146;28;20208;-68
2023/03/09 01:23:16;;;;;;;1999.90;999.90;;;;;;;10.56;100.00;93009.28;5086599;28;20183;-68
2023/03/09 01:25:41;;;;;;;1999.90;999.90;;;;;;;10.63;100.00;93011.69;5087024;28;20204;-68
2023/03/09 01:28:07;;;;;;;1999.90;999.90;;;;;;;10.59;100.00;93005.66;5086646;28;20220;-68
2023/03/09 01:30:32;;;;;;;1999.90;999.90;;;;;;;10.64;100.00;93023.38;5086659;28;20215;-68
2023/03/09 01:32:57;;;;;;;1999.90;999.90;;;;;;;10.61;100.00;93022.31;5086868;28;20185;-67
2023/03/09 01:35:23;;;;;;;1999.90;999.90;;;;;;;10.65;100.00;93035.78;5086900;28;20187;-68
2023/03/09 01:37:48;;;;;;;1999.90;999.90;;;;;;;10.75;100.00;93056.38;5086323;28;20177;-69
2023/03/09 01:40:22;;;;;;;1999.90;999.90;;;;;;;10.76;100.00;93057.88;5086299;28;20217;-68
2023/03/09 01:43:27;;;;;;;1999.90;999.90;;;;;;;10.86;100.00;93081.22;5086858;28;20203;-66
2023/03/09 01:46:14;;;;;;;1999.90;999.90;;;;;;;10.90;100.00;93090.00;5085891;28;20243;-66
2023/03/09 01:48:41;;;;;;;1999.90;999.90;;;;;;;11.03;100.00;93093.28;5086005;28;20178;-67
2023/03/09 01:51:06;;;;;;;1999.90;999.90;;;;;;;11.19;100.00;93101.09;5086495;28;20254;-66
2023/03/09 01:53:32;;;;;;;1999.90;999.90;;;;;;;11.30;100.00;93112.28;5086371;28;20200;-66
2023/03/09 01:55:59;;;;;;;1999.90;999.90;;;;;;;11.43;100.00;93121.00;5085946;28;20200;-66
2023/03/09 01:58:28;;;;;;;1999.90;999.90;;;;;;;11.63;100.00;93123.94;5086474;28;20174;-67
2023/03/09 02:00:55;;;;;;;1999.90;999.90;;;;;;;11.54;100.00;93110.31;5086350;28;20232;-66
2023/03/09 02:03:29;;;;;;;1999.90;999.90;;;;;;;11.55;100.00;93141.91;5086124;28;20175;-67
2023/03/09 02:05:58;;;;;;;1999.90;999.90;;;;;;;11.61;100.00;93126.38;5086201;28;20225;-67
2023/03/09 02:08:26;;;;;;;1999.90;999.90;;;;;;;11.51;100.00;93101.06;5085229;28;20179;-66
2023/03/09 02:10:57;;;;;;;1999.90;999.90;;;;;;;11.57;100.00;93120.31;5086122;28;20208;-67
2023/03/09 02:13:30;;;;;;;1999.90;999.90;;;;;;;11.56;100.00;93102.41;5085458;28;20175;-66
2023/03/09 02:15:56;;;;;;;1999.90;999.90;;;;;;;11.53;100.00;93108.78;5085652;28;20198;-65
2023/03/09 02:18:21;;;;;;;1999.90;999.90;;;;;;;11.55;100.00;93120.03;5085843;28;20176;-65
2023/03/09 02:21:05;;;;;;;1999.90;999.90;;;;;;;11.47;100.00;93116.88;5085957;28;20221;-66
2023/03/09 02:23:52;;;;;;;1999.90;999.90;;;;;;;11.48;100.00;93110.19;5085412;28;20179;-66
2023/03/09 02:26:43;;;;;;;1999.90;999.90;;;;;;;11.47;100.00;93108.66;5085874;28;20227;-66
2023/03/09 02:29:08;;;;;;;1999.90;999.90;;;;;;;11.47;100.00;93129.81;5085400;28;20212;-67
2023/03/09 02:31:34;;;;;;;1999.90;999.90;;;;;;;11.46;100.00;93141.94;5086035;28;20177;-66
2023/03/09 02:33:59;;;;;;;1999.90;999.90;;;;;;;11.53;100.00;93158.00;5085171;28;20242;-66
2023/03/09 02:36:26;;;;;;;1999.90;999.90;;;;;;;11.48;100.00;93140.25;5085256;28;20176;-66
2023/03/09 02:38:52;;;;;;;1999.90;999.90;;;;;;;11.44;100.00;93131.47;5084838;28;20179;-66
2023/03/09 02:41:19;;;;;;;1999.90;999.90;;;;;;;11.47;100.00;93143.47;5085025;28;20175;-67
2023/03/09 02:43:51;;;;;;;1999.90;999.90;;;;;;;11.52;100.00;93179.13;5085363;28;20352;-67
2023/03/09 02:46:17;;;;;;;1999.90;999.90;;;;;;;11.36;100.00;93154.16;5084872;28;20242;-67
2023/03/09 02:48:42;;;;;;;1999.90;999.90;;;;;;;11.01;100.00;93107.41;5084932;28;20187;-66
2023/03/09 02:51:08;;;;;;;1999.90;999.90;;;;;;;10.86;100.00;93105.78;5084864;28;20182;-67
2023/03/09 02:53:34;;;;;;;1999.90;999.90;;;;;;;10.73;100.00;93162.53;5084766;28;20265;-64
2023/03/09 02:56:00;;;;;;;1999.90;999.90;;;;;;;10.42;100.00;93126.53;5084827;28;20173;-65
2023/03/09 02:58:25;;;;;;;1999.90;999.90;;;;;;;10.03;100.00;93052.59;5085245;28;20239;-65
2023/03/09 03:00:50;;;;;;;1999.90;999.90;;;;;;;9.76;100.00;92953.75;5084729;28;20177;-66
2023/03/09 03:03:19;;;;;;;1999.90;999.90;;;;;;;9.61;100.00;92901.88;5084608;28;20169;-67
2023/03/09 03:05:45;;;;;;;1999.90;999.90;;;;;;;9.42;100.00;92818.69;5085113;28;20291;-66
2023/03/09 03:08:11;;;;;;;1999.90;999.90;;;;;;;9.35;100.00;92796.47;5085077;28;20173;-69
2023/03/09 03:10:36;;;;;;;1999.90;999.90;;;;;;;9.26;100.00;92756.38;5084414;28;20298;-68
2023/03/09 03:13:02;;;;;;;1999.90;999.90;;;;;;;9.15;100.00;92712.56;5084386;28;20230;-68
2023/03/09 03:15:27;;;;;;;1999.90;999.90;;;;;;;9.06;100.00;92669.06;5084877;28;20161;-69
2023/03/09 03:17:52;;;;;;;1999.90;999.90;;;;;;;8.99;100.00;92623.13;5084207;28;20248;-67
2023/03/09 03:20:18;;;;;;;1999.90;999.90;;;;;;;8.92;100.00;92579.91;5084398;28;20207;-67
2023/03/09 03:22:43;;;;;;;1999.90;999.90;;;;;;;8.84;100.00;92531.72;5084832;28;20166;-68
2023/03/09 03:25:10;;;;;;;1999.90;999.90;;;;;;;8.78;100.00;92493.50;5084292;28;20176;-69
2023/03/09 03:27:35;;;;;;;1999.90;999.90;;;;;;;8.80;100.00;92458.44;5084270;28;20227;-70
2023/03/09 03:30:02;;;;;;;1999.90;999.90;;;;;;;8.79;100.00;92407.97;5084188;28;20212;-69
2023/03/09 03:32:27;;;;;;;1999.90;999.90;;;;;;;8.78;100.00;92381.97;5084171;28;20197;-68
2023/03/09 03:34:52;;;;;;;1999.90;999.90;;;;;;;8.80;100.00;92338.75;5084215;28;20188;-70
2023/03/09 03:37:18;;;;;;;1999.90;999.90;;;;;;;8.85;100.00;92313.59;5084038;28;20235;-70
2023/03/09 03:39:43;;;;;;;1999.90;999.90;;;;;;;8.88;100.00;92304.50;5084651;28;20177;-69
2023/03/09 03:42:08;;;;;;;1999.90;999.90;;;;;;;8.95;100.00;92334.06;5084280;28;20195;-73
2023/03/09 03:44:34;;;;;;;1999.90;999.90;;;;;;;9.00;100.00;92338.84;5084025;28;20172;-73
2023/03/09 03:46:59;;;;;;;1999.90;999.90;;;;;;;9.08;100.00;92353.63;5084526;28;20263;-71
2023/03/09 03:49:25;;;;;;;1999.90;999.90;;;;;;;9.13;100.00;92385.63;5084201;28;20197;-70
2023/03/09 03:51:50;;;;;;;1999.90;999.90;;;;;;;9.10;100.00;92388.50;5084733;28;20168;-70
2023/03/09 03:54:15;;;;;;;1999.90;999.90;;;;;;;9.07;100.00;92395.66;5084082;28;20185;-70
2023/03/09 03:56:41;;;;;;;1999.90;999.90;;;;;;;9.02;100.00;92420.78;5084469;28;20385;-72
2023/03/09 03:59:06;;;;;;;1999.90;999.90;;;;;;;9.00;100.00;92425.94;5083790;28;20237;-71
2023/03/09 04:01:31;;;;;;;1999.90;999.90;;;;;;;9.01;100.00;92445.75;5083925;28;20169;-68
2023/03/09 04:03:57;;;;;;;1999.90;999.90;;;;;;;9.03;100.00;92459.66;5084268;28;20169;-69
2023/03/09 04:06:25;;;;;;;1999.90;999.90;;;;;;;9.09;100.00;92474.13;5083787;28;20166;-67
2023/03/09 04:08:50;;;;;;;1999.90;999.90;;;;;;;9.06;100.00;92454.03;5084401;28;20165;-69
2023/03/09 04:11:16;;;;;;;1999.90;999.90;;;;;;;9.04;100.00;92442.84;5084052;28;20174;-68
2023/03/09 04:13:42;;;;;;;1999.90;999.90;;;;;;;9.06;100.00;92464.91;5083690;28;20216;-68
2023/03/09 04:16:07;;;;;;;1999.90;999.90;;;;;;;9.05;100.00;92473.53;5083712;28;20194;-68
2023/03/09 04:18:33;;;;;;;1999.90;999.90;;;;;;;9.06;100.00;92496.81;5084167;28;20193;-69
2023/03/09 04:20:58;;;;;;;1999.90;999.90;;;;;;;9.04;100.00;92505.44;5083967;28;20177;-68
2023/03/09 04:23:24;;;;;;;1999.90;999.90;;;;;;;9.11;100.00;92537.75;5084102;28;20172;-68
2023/03/09 04:25:57;;;;;;;1999.90;999.90;;;;;;;9.07;100.00;92569.84;5083676;28;20169;-70
2023/03/09 04:28:24;;;;;;;1999.90;999.90;;;;;;;9.11;100.00;92575.13;5083521;28;20182;-68
2023/03/09 04:30:49;;;;;;;1999.90;999.90;;;;;;;9.08;100.00;92576.81;5085220;28;20334;-68
2023/03/09 04:33:15;;;;;;;1999.90;999.90;;;;;;;9.07;100.00;92545.34;5087519;28;20193;-69
2023/03/09 04:35:42;;;;;;;1999.90;999.90;;;;;;;9.02;100.00;92513.34;5088145;28;20169;-68
2023/03/09 04:38:08;;;;;;;1999.90;999.90;;;;;;;8.97;100.00;92500.38;5088186;28;20181;-68
2023/03/09 04:40:33;;;;;;;1999.90;999.90;;;;;;;8.96;100.00;92487.97;5087398;28;20177;-68
2023/03/09 04:42:58;;;;;;;1999.90;999.90;;;;;;;8.96;100.00;92482.50;5087332;28;20354;-69
2023/03/09 04:45:24;;;;;;;1999.90;999.90;;;;;;;8.92;100.00;92465.63;5087319;28;20191;-68
2023/03/09 04:47:49;;;;;;;1999.90;999.90;;;;;;;8.93;100.00;92439.91;5087158;28;20169;-69
2023/03/09 04:50:14;;;;;;;1999.90;999.90;;;;;;;8.89;100.00;92417.56;5087112;28;20201;-70
2023/03/09 04:52:40;;;;;;;1999.90;999.90;;;;;;;8.87;100.00;92398.25;5087927;28;20193;-69
2023/03/09 04:55:05;;;;;;;1999.90;999.90;;;;;;;8.86;100.00;92369.50;5087068;28;20185;-70
2023/03/09 04:57:31;;;;;;;1999.90;999.90;;;;;;;8.76;100.00;92338.19;5087749;28;20207;-70
2023/03/09 04:59:56;;;;;;;1999.90;999.90;;;;;;;8.77;100.00;92312.47;5087220;28;20165;-69
2023/03/09 05:02:22;;;;;;;1999.90;999.90;;;;;;;8.76;100.00;92288.44;5087237;28;20405;-71
2023/03/09 05:04:47;;;;;;;1999.90;999.90;;;;;;;8.76;100.00;92289.22;5087456;28;20546;-68
2023/03/09 05:07:13;;;;;;;1999.90;999.90;;;;;;;8.80;100.00;92278.88;5087288;28;20174;-73
2023/03/09 05:09:38;;;;;;;1999.90;999.90;;;;;;;8.83;100.00;92239.88;5087218;28;20359;-70
2023/03/09 05:12:04;;;;;;;1999.90;999.90;;;;;;;8.79;100.00;92209.38;5086740;28;20166;-70
2023/03/09 05:14:29;;;;;;;1999.90;999.90;;;;;;;8.78;100.00;92235.06;5086719;28;20165;-72
2023/03/09 05:16:55;;;;;;;1999.90;999.90;;;;;;;8.67;100.00;92215.84;5087183;28;20216;-71
2023/03/09 05:19:21;;;;;;;1999.90;999.90;;;;;;;8.64;100.00;92232.34;5087116;28;20172;-71
2023/03/09 05:21:47;;;;;;;1999.90;999.90;;;;;;;8.57;100.00;92221.84;5086611;28;20165;-71
2023/03/09 05:24:13;;;;;;;1999.90;999.90;;;;;;;8.55;100.00;92208.72;5086392;28;20165;-72
2023/03/09 05:26:38;;;;;;;1999.90;999.90;;;;;;;8.53;100.00;92226.72;5086494;28;20223;-71
2023/03/09 05:29:04;;;;;;;1999.90;999.90;;;;;;;8.51;100.00;92235.34;5086139;28;20230;-70
2023/03/09 05:31:29;;;;;;;1999.90;999.90;;;;;;;8.52;100.00;92246.97;5086655;28;20169;-71
2023/03/09 05:33:55;;;;;;;1999.90;999.90;;;;;;;8.54;100.00;92252.69;5086939;28;20230;-71
2023/03/09 05:36:24;;;;;;;1999.90;999.90;;;;;;;8.50;100.00;92239.28;5086182;28;20199;-71
2023/03/09 05:38:50;;;;;;;1999.90;999.90;;;;;;;8.48;100.00;92240.94;5086804;28;20179;-74
2023/03/09 05:41:16;;;;;;;1999.90;999.90;;;;;;;8.41;100.00;92244.78;5086070;28;20168;-70
2023/03/09 05:43:42;;;;;;;1999.90;999.90;;;;;;;8.39;100.00;92255.41;5085511;28;20171;-68
2023/03/09 05:46:09;;;;;;;1999.90;999.90;;;;;;;8.32;100.00;92277.50;5086651;28;20196;-69
2023/03/09 05:48:36;;;;;;;1999.90;999.90;;;;;;;8.28;100.00;92304.09;5086044;28;20165;-71
2023/03/09 05:51:01;;;;;;;1999.90;999.90;;;;;;;8.20;100.00;92307.59;5086180;28;20208;-72
2023/03/09 05:53:27;;;;;;;1999.90;999.90;;;;;;;8.14;100.00;92321.09;5085978;28;20177;-70
2023/03/09 05:55:52;;;;;;;1999.90;999.90;;;;;;;8.13;100.00;92313.38;5085841;28;20172;-69
2023/03/09 05:58:18;;;;;;;1999.90;999.90;;;;;;;8.12;100.00;92328.94;5085963;28;20407;-69
2023/03/09 06:00:44;;;;;;;1999.90;999.90;;;;;;;8.14;100.00;92340.09;5086278;28;20189;-76
2023/03/09 06:03:09;;;;;;;1999.90;999.90;;;;;;;8.11;100.00;92343.75;5085647;28;20236;-74
2023/03/09 06:05:35;;;;;;;1999.90;999.90;;;;;;;8.04;100.00;92333.22;5086038;28;20176;-69
2023/03/09 06:08:00;;;;;;;1999.90;999.90;;;;;;;8.02;100.00;92354.66;5086494;28;20184;-70
2023/03/09 06:10:26;;;;;;;1999.90;999.90;;;;;;;7.99;100.00;92362.97;5085716;28;20197;-74
2023/03/09 06:12:51;;;;;;;1999.90;999.90;;;;;;;7.98;100.00;92347.91;5086120;28;20173;-79
2023/03/09 06:15:17;;;;;;;1999.90;999.90;;;;;;;7.95;100.00;92357.72;5085527;28;20244;-74
2023/03/09 06:17:42;;;;;;;1999.90;999.90;;;;;;;7.92;100.00;92347.00;5085914;28;20173;-70
2023/03/09 06:20:09;;;;;;;1999.90;999.90;;;;;;;7.95;100.00;92351.53;5086143;28;20242;-71
2023/03/09 06:22:34;;;;;;;1999.90;999.90;;;;;;;7.98;100.00;92370.38;5085992;28;20203;-71
2023/03/09 06:25:00;;;;;;;1999.90;999.90;;;;;;;7.97;100.00;92382.44;5085289;28;20229;-72
2023/03/09 06:27:25;;;;;;;1999.90;999.90;;;;;;;7.98;100.00;92400.25;5085224;28;20213;-69
2023/03/09 06:29:53;;;;;;;1999.90;999.90;;;;;;;8.02;100.00;92400.88;5085964;28;20287;-73
2023/03/09 06:32:19;;;;;;;1999.90;999.90;;;;;;;8.04;100.00;92401.13;5085736;28;20178;-72
2023/03/09 06:34:44;;;;;;;1999.90;999.90;;;;;;;8.05;100.00;92410.06;5085611;28;20404;-71
2023/03/09 06:37:10;;;;;;;1999.90;999.90;;;;;;;8.05;100.00;92421.66;5084855;28;20186;-69
2023/03/09 06:39:35;;;;;;;1999.90;999.90;;;;;;;8.09;100.00;92422.25;5084949;28;20180;-72
2023/03/09 06:42:00;;;;;;;1999.90;999.90;;;;;;;8.10;100.00;92437.34;5085107;28;20172;-71
2023/03/09 06:44:26;;;;;;;1999.90;999.90;;;;;;;8.08;100.00;92447.19;5085017;28;20172;-68
2023/03/09 06:46:51;;;;;;;1999.90;999.90;;;;;;;8.09;100.00;92463.00;5085305;28;20173;-71
2023/03/09 06:49:16;;;;;;;1999.90;999.90;;;;;;;8.14;100.00;92478.69;5084701;28;20193;-75
2023/03/09 06:51:45;;;;;;;1999.90;999.90;;;;;;;8.25;100.00;92484.44;5084819;28;20177;-73
2023/03/09 06:54:10;;;;;;;1999.90;999.90;;;;;;;8.34;100.00;92489.81;5084769;28;20251;-73
2023/03/09 06:56:35;;;;;;;1999.90;999.90;;;;;;;8.40;100.00;92507.03;5084689;28;20166;-71
2023/03/09 06:59:01;;;;;;;1999.90;999.90;;;;;;;8.47;100.00;92527.69;5084657;28;20161;-74
2023/03/09 07:01:26;;;;;;;1999.90;999.90;;;;;;;8.50;100.00;92548.53;5084588;28;20165;-70
2023/03/09 07:03:51;;;;;;;1999.90;999.90;;;;;;;8.57;100.00;92554.38;5085370;28;20172;-78
2023/03/09 07:06:17;;;;;;;1999.90;999.90;;;;;;;8.65;100.00;92571.88;5084471;28;20173;-72
2023/03/09 07:08:42;;;;;;;1999.90;999.90;;;;;;;8.65;100.00;92585.47;5084981;28;20184;-80
2023/03/09 07:11:08;;;;;;;1999.90;999.90;;;;;;;8.65;100.00;92604.53;5084582;28;20211;-74
2023/03/09 07:13:33;;;;;;;1999.90;999.90;;;;;;;8.70;100.00;92628.38;5084162;28;20181;-70
2023/03/09 07:16:02;;;;;;;1999.90;999.90;;;;;;;8.80;100.00;92632.56;5084806;28;20204;-79
2023/03/09 07:18:27;;;;;;;1999.90;999.90;;;;;;;8.79;100.00;92647.41;5084742;28;20173;-72
2023/03/09 07:20:53;;;;;;;1999.90;999.90;;;;;;;8.81;100.00;92655.84;5084498;28;20451;-75
2023/03/09 07:23:18;;;;;;;1999.90;999.90;;;;;;;8.83;100.00;92677.16;5084413;28;20174;-71
2023/03/09 07:25:43;;;;;;;1999.90;999.90;;;;;;;8.80;100.00;92692.44;5084666;28;20210;-68
2023/03/09 07:28:09;;;;;;;1999.90;999.90;;;;;;;8.82;100.00;92698.16;5084518;28;20236;-71
2023/03/09 07:30:37;;;;;;;1999.90;999.90;;;;;;;8.81;100.00;92707.53;5084625;28;20224;-73
2023/03/09 07:33:03;;;;;;;1999.90;999.90;;;;;;;8.86;100.00;92717.78;5084319;28;20208;-72
2023/03/09 07:35:29;;;;;;;1999.90;999.90;;;;;;;8.91;100.00;92725.34;5084616;28;20173;-77
2023/03/09 07:37:54;;;;;;;1999.90;999.90;;;;;;;9.02;100.00;92731.06;5083849;28;20214;-73
2023/03/09 07:40:20;;;;;;;1999.90;999.90;;;;;;;9.22;100.00;92755.81;5083576;28;20199;-74
2023/03/09 07:42:53;;;;;;;1999.90;999.90;;;;;;;10.87;100.00;92768.75;5084060;28;20229;-78
2023/03/09 07:45:19;;;;;;;1999.90;999.90;;;;;;;12.44;100.00;92967.31;5084661;28;20181;-81
2023/03/09 07:47:44;;;;;;;1999.90;999.90;;;;;;;13.18;100.00;93277.09;5084913;28;20192;-81
2023/03/09 07:50:10;;;;;;;1999.90;999.90;;;;;;;13.42;100.00;93471.72;5084697;28;20205;-79
2023/03/09 07:52:35;;;;;;;1999.90;999.90;;;;;;;14.12;100.00;93605.31;5084586;28;20173;-78
2023/03/09 07:55:01;;;;;;;1999.90;999.90;;;;;;;13.80;100.00;93671.25;5083839;28;20197;-75
2023/03/09 07:57:32;;;;;;;1999.90;999.90;;;;;;;13.63;100.00;93698.31;5083699;28;20373;-73
2023/03/09 07:59:58;;;;;;;1999.90;999.90;;;;;;;13.48;100.00;93711.16;5083775;28;20173;-72
2023/03/09 08:02:24;;;;;;;1999.90;999.90;;;;;;;13.11;100.00;93720.69;5083699;28;20173;-73
2023/03/09 08:04:50;;;;;;;1999.90;999.90;;;;;;;12.51;100.00;93723.31;5084735;28;20181;-80
2023/03/09 08:07:16;;;;;;;1999.90;999.90;;;;;;;12.31;100.00;93714.03;5083976;28;20173;-74
2023/03/09 08:09:41;;;;;;;1999.90;999.90;;;;;;;12.30;100.00;93698.81;5084422;28;20258;-82
2023/03/09 08:12:07;;;;;;;1999.90;999.90;;;;;;;12.49;100.00;93692.88;5083818;28;20363;-76
2023/03/09 08:14:32;;;;;;;1999.90;999.90;;;;;;;12.16;100.00;93707.59;5084549;28;20169;-74
2023/03/09 08:16:58;;;;;;;1999.90;999.90;;;;;;;12.40;100.00;93711.28;5083694;28;20173;-75
2023/03/09 08:19:23;;;;;;;1999.90;999.90;;;;;;;13.02;100.00;93734.41;5084295;28;20169;-71
2023/03/09 08:21:49;;;;;;;1999.90;999.90;;;;;;;12.95;100.00;93751.91;5083416;28;20177;-75
2023/03/09 08:24:15;;;;;;;1999.90;999.90;;;;;;;12.74;100.00;93768.50;5083428;28;20173;-73
2023/03/09 08:26:41;;;;;;;1999.90;999.90;;;;;;;12.63;100.00;93757.22;5083396;28;20219;-73
2023/03/09 08:29:07;;;;;;;1999.90;999.90;;;;;;;12.18;100.00;93765.38;5083464;28;20208;-72
2023/03/09 08:31:35;;;;;;;1999.90;999.90;;;;;;;12.54;100.00;93751.75;5083471;28;20173;-74
2023/03/09 08:34:03;;;;;;;1999.90;999.90;;;;;;;12.53;100.00;93766.69;5083909;28;20174;-67
2023/03/09 08:36:28;;;;;;;1999.90;999.90;;;;;;;12.22;100.00;93768.75;5083741;28;20173;-67
2023/03/09 08:38:54;;;;;;;1999.90;999.90;;;;;;;12.02;100.00;93769.16;5083347;28;20371;-67
2023/03/09 08:41:20;;;;;;;1999.90;999.90;;;;;;;11.95;100.00;93763.22;5083306;28;20223;-67
2023/03/09 08:43:46;;;;;;;1999.90;999.90;;;;;;;11.93;100.00;93760.16;5083819;28;20207;-67
2023/03/09 08:46:11;;;;;;;1999.90;999.90;;;;;;;11.88;100.00;93755.28;5083253;28;20180;-66
2023/03/09 08:48:37;;;;;;;1999.90;999.90;;;;;;;12.14;100.00;93746.41;5083308;28;20178;-68
2023/03/09 08:51:05;;;;;;;1999.90;999.90;;;;;;;12.17;100.00;93741.97;5083557;28;20204;-66
2023/03/09 08:53:32;;;;;;;1999.90;999.90;;;;;;;12.18;100.00;93751.72;5083975;28;20248;-65
2023/03/09 08:55:57;;;;;;;1999.90;999.90;;;;;;;12.81;100.00;93784.63;5083173;28;20208;-66
2023/03/09 08:58:23;;;;;;;1999.90;999.90;;;;;;;14.57;100.00;93802.75;5083269;28;20169;-67
2023/03/09 09:00:48;;;;;;;1999.90;999.90;;;;;;;15.18;100.00;93846.00;5083205;28;20199;-65
2023/03/09 09:03:14;;;;;;;1999.90;999.90;;;;;;;15.21;100.00;93853.31;5083157;28;20169;-66
2023/03/09 09:05:39;;;;;;;1999.90;999.90;;;;;;;15.67;100.00;93868.22;5083673;28;20169;-65
2023/03/09 09:08:04;;;;;;;1999.90;999.90;;;;;;;16.46;100.00;93882.88;5083081;28;20170;-65
2023/03/09 09:10:30;;;;;;;1999.90;999.90;;;;;;;16.84;100.00;93887.44;5083252;28;20197;-64
2023/03/09 09:12:56;;;;;;;1999.90;999.90;;;;;;;17.24;100.00;93901.28;5082939;28;20466;-66
2023/03/09 09:15:21;;;;;;;1999.90;999.90;;;;;;;17.14;100.00;93897.13;5082953;28;20236;-65
2023/03/09 09:17:46;;;;;;;1999.90;999.90;;;;;;;17.85;100.00;93897.28;5086094;28;20169;-63
2023/03/09 09:20:13;;;;;;;1999.90;999.90;;;;;;;18.05;100.00;93909.03;5086356;28;20207;-62
2023/03/09 09:22:41;;;;;;;1999.90;999.90;;;;;;;18.69;100.00;93922.47;5086500;28;20222;-64
2023/03/09 09:25:08;;;;;;;1999.90;999.90;;;;;;;17.96;100.00;93919.50;5087325;28;20192;-63
2023/03/09 09:27:34;;;;;;;1999.90;999.90;;;;;;;16.87;100.00;93916.81;5086990;28;20209;-67
2023/03/09 09:30:00;;;;;;;1999.90;999.90;;;;;;;15.88;100.00;93938.69;5086945;28;20193;-66
2023/03/09 09:32:25;;;;;;;1999.90;999.90;;;;;;;16.02;100.00;93943.47;5086463;28;20222;-65
2023/03/09 09:34:51;;;;;;;1999.90;999.90;;;;;;;15.70;100.00;93938.84;5086804;28;20169;-66
2023/03/09 09:37:17;;;;;;;1999.90;999.90;;;;;;;15.54;100.00;93942.03;5086425;28;20208;-66
2023/03/09 09:39:42;;;;;;;1999.90;999.90;;;;;;;15.22;100.00;93942.84;5086253;28;20283;-65
2023/03/09 09:42:33;;;;;;;1999.90;999.90;;;;;;;14.67;100.00;93958.09;5086332;28;20188;-66
2023/03/09 09:44:59;;;;;;;1999.90;999.90;;;;;;;14.69;100.00;93950.16;5085922;28;20179;-66
2023/03/09 09:47:29;;;;;;;1999.90;999.90;;;;;;;15.18;100.00;93956.00;5086095;28;20169;-66
2023/03/09 09:49:57;;;;;;;1999.90;999.90;;;;;;;15.78;100.00;93966.78;5086226;28;20204;-67
2023/03/09 09:52:30;;;;;;;1999.90;999.90;;;;;;;15.80;100.00;93940.28;5086694;28;20203;-65
2023/03/09 09:55:05;;;;;;;1999.90;999.90;;;;;;;15.84;100.00;93953.88;5085931;28;20213;-65
2023/03/09 09:57:39;;;;;;;1999.90;999.90;;;;;;;15.68;100.00;93944.06;5086659;28;20165;-65
2023/03/09 10:00:17;;;;;;;1999.90;999.90;;;;;;;15.87;100.00;93948.19;5085939;28;20172;-67
2023/03/09 10:03:35;;;;;;;1999.90;999.90;;;;;;;15.96;100.00;93945.34;5086391;28;20165;-67
2023/03/09 10:06:17;;;;;;;1999.90;999.90;;;;;;;15.50;100.00;93941.47;5060913;28;20184;-66
2023/03/09 10:08:56;;;;;;;1999.90;999.90;;;;;;;15.17;100.00;93962.75;5086075;28;20232;-65
2023/03/09 10:11:27;;;;;;;1999.90;999.90;;;;;;;14.89;100.00;93968.84;5086380;28;20169;-66
2023/03/09 10:14:20;;;;;;;1999.90;999.90;;;;;;;14.71;100.00;93975.19;5086091;28;20161;-65
2023/03/09 10:16:54;;;;;;;1999.90;999.90;;;;;;;14.36;100.00;93976.84;5086335;28;20161;-66
2023/03/09 10:19:27;;;;;;;1999.90;999.90;;;;;;;14.43;100.00;93981.22;5085543;28;20244;-66
2023/03/09 10:22:24;;;;;;;1999.90;999.90;;;;;;;14.39;100.00;93981.38;5086061;28;20168;-66
2023/03/09 10:24:51;;;;;;;1999.90;999.90;;;;;;;14.49;100.00;93985.63;5084337;28;20344;-66
2023/03/09 10:27:40;;;;;;;1999.90;999.90;;;;;;;15.03;100.00;93977.19;5085218;28;20241;-66
2023/03/09 10:30:17;;;;;;;1999.90;999.90;;;;;;;15.06;100.00;93981.75;5085152;28;20214;-66
2023/03/09 10:32:49;;;;;;;1999.90;999.90;;;;;;;15.54;100.00;93977.81;5085285;28;20172;-66
2023/03/09 10:35:41;;;;;;;1999.90;999.90;;;;;;;14.98;100.00;93993.53;5085455;28;20196;-66
2023/03/09 10:38:18;;;;;;;1999.90;999.90;;;;;;;14.83;100.00;94009.19;5085372;28;20170;-66
2023/03/09 10:40:49;;;;;;;1999.90;999.90;;;;;;;14.66;100.00;94010.78;5084822;28;20266;-66
2023/03/09 10:43:23;;;;;;;1999.90;999.90;;;;;;;14.50;100.00;93987.16;5085580;28;20315;-66
2023/03/09 10:45:49;;;;;;;1999.90;999.90;;;;;;;14.55;100.00;94000.28;5085547;28;20207;-66
2023/03/09 10:48:26;;;;;;;1999.90;999.90;;;;;;;15.01;100.00;93998.13;5084866;28;20173;-66
2023/03/09 10:50:59;;;;;;;1999.90;999.90;;;;;;;14.59;100.00;93987.13;5085627;28;20238;-66